Time;durP1;ratioP1;P1;durP2;ratioP2;P2;SDS_P1;SDS_P2;PMS_P1;PMS_P2;Temp;Humidity;BMP_temperature;BMP_pressure;BME280_temperature;BME280_humidity;BME280_pressure;Samples;Min_cycle;Max_cycle;Signal;HPM_P1;HPM_P2
2021/08/01 00:02:17;;;;;;;9.47;5.43;;;;;;;;;;5075085;28;20421;-73
2021/08/01 00:04:43;;;;;;;4.67;4.27;;;;;;;;;;5094029;28;20433;-73
2021/08/01 00:07:09;;;;;;;5.67;5.10;;;;;;;;;;5094762;28;20496;-71
2021/08/01 00:09:35;;;;;;;5.10;4.60;;;;;;;;;;5094974;28;20540;-70
2021/08/01 00:12:01;;;;;;;4.90;4.40;;;;;;;;;;5095265;28;20405;-74
2021/08/01 00:14:27;;;;;;;6.00;5.40;;;;;;;;;;5076170;28;20836;-72
2021/08/01 00:16:53;;;;;;;7.93;5.57;;;;;;;;;;5074288;28;20424;-71
2021/08/01 00:19:19;;;;;;;5.27;4.80;;;;;;;;;;5074873;28;20482;-72
2021/08/01 00:21:45;;;;;;;7.67;5.77;;;;;;;;;;5074536;28;20425;-73
2021/08/01 00:24:11;;;;;;;5.83;5.20;;;;;;;;;;5074426;28;20437;-73
2021/08/01 00:26:37;;;;;;;6.37;5.77;;;;;;;;;;5074218;28;20429;-71
2021/08/01 00:29:03;;;;;;;5.60;4.83;;;;;;;;;;5074392;28;20465;-70
2021/08/01 00:31:29;;;;;;;6.57;5.60;;;;;;;;;;5074255;28;20416;-69
2021/08/01 00:33:55;;;;;;;6.57;5.17;;;;;;;;;;5073684;28;20915;-73
2021/08/01 00:36:21;;;;;;;5.97;4.90;;;;;;;;;;5074308;28;20409;-73
2021/08/01 00:38:47;;;;;;;5.30;4.80;;;;;;;;;;5074025;28;20568;-69
2021/08/01 00:41:13;;;;;;;5.50;4.80;;;;;;;;;;5074342;28;20422;-70
2021/08/01 00:43:39;;;;;;;5.40;4.40;;;;;;;;;;5074201;28;20438;-72
2021/08/01 00:46:05;;;;;;;5.50;4.97;;;;;;;;;;5074246;28;20421;-70
2021/08/01 00:48:33;;;;;;;5.63;5.00;;;;;;;;;;5073622;28;20453;-71
2021/08/01 00:51:00;;;;;;;6.70;5.20;;;;;;;;;;5074127;28;20776;-68
2021/08/01 00:53:26;;;;;;;5.53;4.90;;;;;;;;;;5079918;28;20940;-73
2021/08/01 00:55:52;;;;;;;5.87;5.07;;;;;;;;;;5082401;28;20493;-71
2021/08/01 00:58:18;;;;;;;6.30;5.57;;;;;;;;;;5073546;28;20914;-70
2021/08/01 01:03:35;;;;;;;7.60;5.20;;;;;;;;;;5082800;28;20418;-73
2021/08/01 01:06:02;;;;;;;5.30;4.80;;;;;;;;;;5092710;28;20870;-69
2021/08/01 01:08:37;;;;;;;6.00;5.37;;;;;;;;;;5093553;28;20472;-72
2021/08/01 01:11:04;;;;;;;5.87;5.27;;;;;;;;;;5092718;28;20446;-70
2021/08/01 01:13:35;;;;;;;6.40;5.80;;;;;;;;;;5082584;28;20558;-70
2021/08/01 01:16:02;;;;;;;6.43;5.00;;;;;;;;;;5073724;28;20448;-74
2021/08/01 01:18:29;;;;;;;5.30;4.80;;;;;;;;;;5073160;28;20418;-73
2021/08/01 01:21:02;;;;;;;7.43;4.83;;;;;;;;;;5073726;28;20441;-73
2021/08/01 01:23:37;;;;;;;6.30;5.37;;;;;;;;;;5073773;28;20906;-73
2021/08/01 01:26:04;;;;;;;6.67;4.80;;;;;;;;;;5073582;28;20417;-72
2021/08/01 01:28:42;;;;;;;5.83;5.03;;;;;;;;;;5073316;28;21007;-72
2021/08/01 01:31:17;;;;;;;6.80;5.60;;;;;;;;;;5073397;28;20414;-72
2021/08/01 01:33:47;;;;;;;8.40;5.17;;;;;;;;;;5073814;28;20779;-71
2021/08/01 01:36:18;;;;;;;6.50;5.43;;;;;;;;;;5073245;28;20414;-73
2021/08/01 01:38:45;;;;;;;6.90;5.50;;;;;;;;;;5073049;28;20741;-73
2021/08/01 01:41:11;;;;;;;5.47;4.97;;;;;;;;;;5073179;28;20413;-72
2021/08/01 01:43:37;;;;;;;5.50;5.00;;;;;;;;;;5073120;28;20860;-71
2021/08/01 01:46:04;;;;;;;5.60;5.10;;;;;;;;;;5072862;28;20417;-71
2021/08/01 01:48:30;;;;;;;7.30;6.60;;;;;;;;;;5072789;28;20961;-70
2021/08/01 01:50:56;;;;;;;6.33;5.10;;;;;;;;;;5073112;28;20929;-73
2021/08/01 01:53:23;;;;;;;7.67;5.10;;;;;;;;;;5078196;28;20434;-73
2021/08/01 01:55:50;;;;;;;7.90;5.53;;;;;;;;;;5081755;28;20908;-70
2021/08/01 01:58:16;;;;;;;6.97;5.70;;;;;;;;;;5072789;28;20415;-71
2021/08/01 02:00:46;;;;;;;4.60;4.20;;;;;;;;;;5073366;28;20418;-72
2021/08/01 02:03:12;;;;;;;5.37;4.87;;;;;;;;;;5072975;28;20456;-70
2021/08/01 02:05:38;;;;;;;5.17;4.77;;;;;;;;;;5073303;28;20948;-74
2021/08/01 02:08:07;;;;;;;7.03;5.67;;;;;;;;;;5072376;28;20521;-71
2021/08/01 02:10:39;;;;;;;6.13;5.43;;;;;;;;;;5073417;28;20465;-70
2021/08/01 02:13:07;;;;;;;7.33;5.10;;;;;;;;;;5080748;28;20428;-69
2021/08/01 02:15:42;;;;;;;7.07;5.40;;;;;;;;;;5093438;28;20409;-71
2021/08/01 02:18:08;;;;;;;6.37;5.77;;;;;;;;;;5092503;28;20416;-72
2021/08/01 02:20:41;;;;;;;7.23;5.07;;;;;;;;;;5092975;28;20446;-72
2021/08/01 02:23:09;;;;;;;5.67;5.00;;;;;;;;;;5093172;28;20444;-70
2021/08/01 02:25:36;;;;;;;9.70;5.70;;;;;;;;;;5093033;28;20913;-73
2021/08/01 02:28:03;;;;;;;6.20;5.60;;;;;;;;;;5092253;28;20498;-72
2021/08/01 02:30:30;;;;;;;6.73;5.10;;;;;;;;;;5073123;28;20469;-72
2021/08/01 02:32:57;;;;;;;5.67;5.17;;;;;;;;;;5072799;28;20958;-70
2021/08/01 02:35:23;;;;;;;6.20;5.57;;;;;;;;;;5072739;28;20445;-70
2021/08/01 02:37:51;;;;;;;5.53;5.00;;;;;;;;;;5072589;28;20460;-71
2021/08/01 02:40:17;;;;;;;9.43;6.10;;;;;;;;;;5072554;28;20692;-71
2021/08/01 02:42:44;;;;;;;7.20;5.93;;;;;;;;;;5072669;28;20456;-72
2021/08/01 02:45:11;;;;;;;8.13;5.40;;;;;;;;;;5073002;28;20421;-73
2021/08/01 02:47:37;;;;;;;8.67;5.70;;;;;;;;;;5072401;28;20782;-73
2021/08/01 02:50:04;;;;;;;7.83;6.70;;;;;;;;;;5072436;28;20485;-74
2021/08/01 02:52:49;;;;;;;11.00;6.97;;;;;;;;;;5072378;28;20437;-74
2021/08/01 02:55:16;;;;;;;7.30;6.40;;;;;;;;;;5071489;28;20400;-71
2021/08/01 02:57:45;;;;;;;8.87;7.13;;;;;;;;;;5073654;28;20768;-73
2021/08/01 03:00:12;;;;;;;11.43;7.70;;;;;;;;;;5076273;28;20402;-69
2021/08/01 03:02:39;;;;;;;10.27;7.20;;;;;;;;;;5076055;28;20473;-69
2021/08/01 03:05:06;;;;;;;7.70;6.90;;;;;;;;;;5076288;28;20429;-73
2021/08/01 03:07:33;;;;;;;9.07;7.57;;;;;;;;;;5075598;28;20417;-71
2021/08/01 03:09:59;;;;;;;9.03;8.13;;;;;;;;;;5076115;28;20940;-72
2021/08/01 03:12:25;;;;;;;9.57;8.60;;;;;;;;;;5074564;28;20508;-72
2021/08/01 03:14:51;;;;;;;10.90;8.70;;;;;;;;;;5076122;28;20412;-68
2021/08/01 03:17:17;;;;;;;8.90;7.87;;;;;;;;;;5075447;28;20409;-69
2021/08/01 03:19:43;;;;;;;9.00;7.70;;;;;;;;;;5076176;28;20462;-73
2021/08/01 03:22:09;;;;;;;8.60;7.70;;;;;;;;;;5075930;28;20418;-70
2021/08/01 03:24:35;;;;;;;9.53;7.30;;;;;;;;;;5075800;28;20893;-72
2021/08/01 03:27:01;;;;;;;9.80;7.90;;;;;;;;;;5073952;28;20909;-72
2021/08/01 03:29:27;;;;;;;9.20;7.30;;;;;;;;;;5076008;28;20489;-71
2021/08/01 03:31:53;;;;;;;9.30;6.97;;;;;;;;;;5075548;28;20424;-73
2021/08/01 03:34:20;;;;;;;11.13;7.00;;;;;;;;;;5074329;28;20450;-73
2021/08/01 03:36:46;;;;;;;8.47;6.63;;;;;;;;;;5075386;28;20417;-73
2021/08/01 03:39:12;;;;;;;8.83;7.00;;;;;;;;;;5075741;28;20413;-73
2021/08/01 03:41:39;;;;;;;10.10;6.60;;;;;;;;;;5075637;28;20470;-69
2021/08/01 03:44:05;;;;;;;7.80;6.30;;;;;;;;;;5075512;28;20438;-71
2021/08/01 03:46:31;;;;;;;7.10;6.30;;;;;;;;;;5075417;28;20427;-72
2021/08/01 03:48:57;;;;;;;9.10;6.00;;;;;;;;;;5075181;28;20484;-73
2021/08/01 03:51:23;;;;;;;7.60;6.23;;;;;;;;;;5075351;28;20416;-71
2021/08/01 03:53:49;;;;;;;8.90;5.87;;;;;;;;;;5075500;28;20917;-73
2021/08/01 03:56:15;;;;;;;7.93;4.93;;;;;;;;;;5075107;28;20402;-72
2021/08/01 03:58:41;;;;;;;5.70;5.10;;;;;;;;;;5074633;28;20413;-69
2021/08/01 04:01:07;;;;;;;7.00;5.03;;;;;;;;;;5075092;28;20445;-73
2021/08/01 04:03:33;;;;;;;5.87;5.33;;;;;;;;;;5075017;28;20516;-72
2021/08/01 04:05:59;;;;;;;9.53;5.57;;;;;;;;;;5075048;28;20467;-72
2021/08/01 04:08:25;;;;;;;6.30;4.80;;;;;;;;;;5074257;28;20437;-71
2021/08/01 04:10:51;;;;;;;9.80;6.30;;;;;;;;;;5075071;28;20437;-72
2021/08/01 04:13:17;;;;;;;6.30;5.07;;;;;;;;;;5084323;28;20920;-73
2021/08/01 04:15:46;;;;;;;9.60;5.70;;;;;;;;;;5095302;28;20800;-70
2021/08/01 04:18:12;;;;;;;8.60;6.07;;;;;;;;;;5094532;28;20500;-71
2021/08/01 04:20:38;;;;;;;9.07;6.60;;;;;;;;;;5094914;28;20414;-72
2021/08/01 04:23:04;;;;;;;7.47;6.70;;;;;;;;;;5094596;28;20967;-71
2021/08/01 04:25:31;;;;;;;11.20;6.73;;;;;;;;;;5094836;28;20415;-73
2021/08/01 04:27:56;;;;;;;10.43;7.17;;;;;;;;;;5094383;28;20430;-71
2021/08/01 04:30:23;;;;;;;8.60;7.00;;;;;;;;;;5074684;28;20461;-71
2021/08/01 04:32:49;;;;;;;9.67;7.07;;;;;;;;;;5074582;28;20436;-73
2021/08/01 04:35:15;;;;;;;11.67;8.10;;;;;;;;;;5074363;28;20449;-73
2021/08/01 04:37:41;;;;;;;11.10;8.50;;;;;;;;;;5074158;28;20412;-70
2021/08/01 04:40:08;;;;;;;8.40;7.00;;;;;;;;;;5074526;28;20410;-70
2021/08/01 04:42:34;;;;;;;9.10;7.50;;;;;;;;;;5074425;28;20427;-73
2021/08/01 04:45:00;;;;;;;10.20;7.63;;;;;;;;;;5074154;28;20486;-69
2021/08/01 04:47:26;;;;;;;12.30;7.77;;;;;;;;;;5073840;28;20763;-71
2021/08/01 04:49:52;;;;;;;8.80;7.37;;;;;;;;;;5074109;28;20522;-72
2021/08/01 04:52:19;;;;;;;7.73;6.70;;;;;;;;;;5074508;28;20409;-72
2021/08/01 04:54:45;;;;;;;12.00;7.80;;;;;;;;;;5074329;28;20413;-70
2021/08/01 04:57:12;;;;;;;7.33;6.63;;;;;;;;;;5073675;28;20417;-73
2021/08/01 04:59:38;;;;;;;7.57;6.77;;;;;;;;;;5073958;28;20829;-71
2021/08/01 05:02:04;;;;;;;12.60;7.70;;;;;;;;;;5073857;28;20907;-72
2021/08/01 05:04:31;;;;;;;12.47;6.50;;;;;;;;;;5090753;28;20521;-71
2021/08/01 05:06:57;;;;;;;9.63;7.43;;;;;;;;;;5093934;28;20435;-72
2021/08/01 05:09:23;;;;;;;9.23;7.37;;;;;;;;;;5093654;28;20492;-73
2021/08/01 05:11:49;;;;;;;11.30;8.10;;;;;;;;;;5094166;28;20408;-70
2021/08/01 05:14:15;;;;;;;11.13;7.83;;;;;;;;;;5076670;28;20430;-71
2021/08/01 05:16:41;;;;;;;9.70;7.90;;;;;;;;;;5073660;28;20424;-73
2021/08/01 05:19:07;;;;;;;8.27;7.37;;;;;;;;;;5073464;28;20426;-72
2021/08/01 05:21:34;;;;;;;12.27;7.53;;;;;;;;;;5073268;28;20522;-73
2021/08/01 05:24:00;;;;;;;8.97;7.40;;;;;;;;;;5073366;28;20551;-71
2021/08/01 05:26:26;;;;;;;9.53;7.90;;;;;;;;;;5073881;28;20419;-72
2021/08/01 05:28:52;;;;;;;12.20;8.77;;;;;;;;;;5073040;28;20546;-73
2021/08/01 05:31:18;;;;;;;9.90;7.20;;;;;;;;;;5073493;28;20441;-70
2021/08/01 05:33:44;;;;;;;13.60;8.73;;;;;;;;;;5073279;28;20434;-70
2021/08/01 05:36:11;;;;;;;9.87;8.30;;;;;;;;;;5073608;28;20755;-71
2021/08/01 05:38:38;;;;;;;11.10;8.40;;;;;;;;;;5072855;28;20409;-74
2021/08/01 05:41:04;;;;;;;12.13;8.83;;;;;;;;;;5073531;28;20413;-69
2021/08/01 05:43:30;;;;;;;8.63;7.33;;;;;;;;;;5073017;28;20468;-73
2021/08/01 05:45:56;;;;;;;9.90;7.80;;;;;;;;;;5073408;28;20418;-71
2021/08/01 05:48:22;;;;;;;10.00;8.60;;;;;;;;;;5072780;28;20461;-72
2021/08/01 05:50:48;;;;;;;11.53;9.50;;;;;;;;;;5073439;28;20417;-71
2021/08/01 05:53:17;;;;;;;10.47;8.60;;;;;;;;;;5077048;28;20437;-70
2021/08/01 05:55:43;;;;;;;11.20;9.30;;;;;;;;;;5083336;28;20410;-69
2021/08/01 05:58:09;;;;;;;11.87;9.77;;;;;;;;;;5072214;28;20437;-72
2021/08/01 06:00:35;;;;;;;15.00;9.87;;;;;;;;;;5073202;28;20414;-72
2021/08/01 06:03:01;;;;;;;12.37;10.70;;;;;;;;;;5077950;28;20838;-71
2021/08/01 06:05:27;;;;;;;16.03;10.73;;;;;;;;;;5093119;28;20432;-70
2021/08/01 06:07:53;;;;;;;13.43;9.80;;;;;;;;;;5093072;28;20431;-71
2021/08/01 06:10:19;;;;;;;17.53;10.70;;;;;;;;;;5093096;28;20875;-72
2021/08/01 06:12:45;;;;;;;11.23;10.00;;;;;;;;;;5088138;28;20458;-72
2021/08/01 06:15:11;;;;;;;12.67;10.00;;;;;;;;;;5073547;28;20514;-71
2021/08/01 06:17:39;;;;;;;14.23;10.70;;;;;;;;;;5072605;28;20410;-72
2021/08/01 06:20:05;;;;;;;12.40;9.63;;;;;;;;;;5072840;28;20448;-72
2021/08/01 06:22:31;;;;;;;11.30;9.50;;;;;;;;;;5072726;28;20441;-71
2021/08/01 06:24:57;;;;;;;12.60;9.57;;;;;;;;;;5072878;28;20464;-73
2021/08/01 06:27:23;;;;;;;13.30;9.60;;;;;;;;;;5072498;28;20411;-73
2021/08/01 06:29:49;;;;;;;11.37;9.03;;;;;;;;;;5072540;28;20530;-70
2021/08/01 06:32:15;;;;;;;12.23;9.00;;;;;;;;;;5075768;28;20456;-71
2021/08/01 06:34:41;;;;;;;10.20;9.10;;;;;;;;;;5076793;28;20467;-70
2021/08/01 06:37:07;;;;;;;13.70;9.50;;;;;;;;;;5076849;28;20418;-70
2021/08/01 06:39:33;;;;;;;13.60;8.20;;;;;;;;;;5076817;28;20418;-73
2021/08/01 06:41:59;;;;;;;10.13;8.90;;;;;;;;;;5076608;28;20446;-70
2021/08/01 06:44:25;;;;;;;13.10;9.27;;;;;;;;;;5076636;28;20438;-70
2021/08/01 06:46:51;;;;;;;9.43;8.03;;;;;;;;;;5076417;28;20520;-71
2021/08/01 06:49:17;;;;;;;12.63;9.20;;;;;;;;;;5076678;28;20454;-72
2021/08/01 06:51:43;;;;;;;13.77;8.10;;;;;;;;;;5076471;28;20906;-72
2021/08/01 06:54:09;;;;;;;12.90;8.63;;;;;;;;;;5076650;28;20430;-73
2021/08/01 06:56:35;;;;;;;10.47;8.53;;;;;;;;;;5075888;28;20414;-71
2021/08/01 06:59:01;;;;;;;10.07;8.97;;;;;;;;;;5076513;28;20767;-71
2021/08/01 07:01:27;;;;;;;11.17;9.53;;;;;;;;;;5076451;28;20770;-72
2021/08/01 07:03:53;;;;;;;10.23;7.80;;;;;;;;;;5076066;28;20438;-70
2021/08/01 07:06:19;;;;;;;10.13;8.53;;;;;;;;;;5075901;28;20433;-70
2021/08/01 07:08:45;;;;;;;10.63;8.90;;;;;;;;;;5075830;28;20465;-72
2021/08/01 07:11:11;;;;;;;12.63;9.43;;;;;;;;;;5076064;28;20406;-72
2021/08/01 07:13:37;;;;;;;11.30;9.70;;;;;;;;;;5088278;28;20522;-71
2021/08/01 07:16:04;;;;;;;14.13;9.33;;;;;;;;;;5096165;28;20436;-71
2021/08/01 07:18:30;;;;;;;13.00;10.60;;;;;;;;;;5095975;28;20743;-71
2021/08/01 07:20:57;;;;;;;11.23;9.53;;;;;;;;;;5095973;28;20454;-72
2021/08/01 07:23:23;;;;;;;13.63;10.60;;;;;;;;;;5096420;28;20430;-74
2021/08/01 07:25:49;;;;;;;12.40;10.50;;;;;;;;;;5096181;28;20762;-72
2021/08/01 07:28:15;;;;;;;14.07;9.67;;;;;;;;;;5093516;28;20431;-71
2021/08/01 07:30:41;;;;;;;13.10;9.53;;;;;;;;;;5075583;28;20522;-73
2021/08/01 07:33:09;;;;;;;11.20;9.47;;;;;;;;;;5075737;28;20427;-72
2021/08/01 07:35:35;;;;;;;12.50;9.77;;;;;;;;;;5075996;28;20438;-74
2021/08/01 07:38:01;;;;;;;12.37;8.60;;;;;;;;;;5075394;28;20411;-72
2021/08/01 07:40:27;;;;;;;9.97;8.43;;;;;;;;;;5075405;28;20414;-72
2021/08/01 07:42:53;;;;;;;9.87;8.90;;;;;;;;;;5075262;28;20473;-72
2021/08/01 07:45:31;;;;;;;9.90;8.90;;;;;;;;;;5075484;28;20446;-72
2021/08/01 07:47:57;;;;;;;10.93;8.67;;;;;;;;;;5075268;28;20501;-72
2021/08/01 07:50:23;;;;;;;12.10;9.80;;;;;;;;;;5075370;28;20818;-73
2021/08/01 07:52:49;;;;;;;9.33;8.40;;;;;;;;;;5075157;28;20431;-73
2021/08/01 07:55:15;;;;;;;11.40;9.03;;;;;;;;;;5075416;28;20964;-73
2021/08/01 07:57:42;;;;;;;9.90;7.93;;;;;;;;;;5074882;28;20418;-71
2021/08/01 08:00:08;;;;;;;11.80;9.20;;;;;;;;;;5075456;28;20771;-70
2021/08/01 08:02:34;;;;;;;9.47;8.47;;;;;;;;;;5075222;28;20434;-72
2021/08/01 08:05:00;;;;;;;11.17;9.07;;;;;;;;;;5074968;28;20941;-71
2021/08/01 08:07:26;;;;;;;9.10;8.10;;;;;;;;;;5074938;28;20767;-71
2021/08/01 08:09:52;;;;;;;10.10;8.30;;;;;;;;;;5074993;28;20497;-72
2021/08/01 08:12:18;;;;;;;12.30;9.40;;;;;;;;;;5074739;28;20410;-71
2021/08/01 08:14:44;;;;;;;10.17;8.03;;;;;;;;;;5074781;28;20402;-70
2021/08/01 08:17:10;;;;;;;12.50;7.70;;;;;;;;;;5074385;28;20407;-70
2021/08/01 08:19:38;;;;;;;8.63;7.83;;;;;;;;;;5075277;28;20759;-73
2021/08/01 08:22:04;;;;;;;9.33;8.43;;;;;;;;;;5074894;28;20876;-70
2021/08/01 08:24:30;;;;;;;8.47;7.67;;;;;;;;;;5074767;28;20466;-71
2021/08/01 08:26:56;;;;;;;10.50;7.47;;;;;;;;;;5073905;28;20410;-73
2021/08/01 08:29:23;;;;;;;9.13;8.03;;;;;;;;;;5074515;28;20450;-73
2021/08/01 08:31:50;;;;;;;8.43;7.60;;;;;;;;;;5074612;28;20448;-72
2021/08/01 08:34:17;;;;;;;8.37;7.17;;;;;;;;;;5074426;28;20435;-73
2021/08/01 08:36:47;;;;;;;8.20;7.40;;;;;;;;;;5074292;28;20402;-72
2021/08/01 08:39:14;;;;;;;7.57;6.77;;;;;;;;;;5074481;28;20414;-71
2021/08/01 08:41:40;;;;;;;7.90;6.97;;;;;;;;;;5074517;28;20416;-73
2021/08/01 08:44:06;;;;;;;10.33;7.47;;;;;;;;;;5074573;28;20521;-73
2021/08/01 08:46:34;;;;;;;9.43;7.43;;;;;;;;;;5074089;28;20420;-69
2021/08/01 08:49:00;;;;;;;8.43;7.57;;;;;;;;;;5074315;28;20481;-72
2021/08/01 08:51:26;;;;;;;8.30;6.87;;;;;;;;;;5074088;28;20442;-71
2021/08/01 08:53:54;;;;;;;9.33;6.30;;;;;;;;;;5074001;28;20462;-73
2021/08/01 08:56:20;;;;;;;6.97;6.27;;;;;;;;;;5073879;28;20966;-72
2021/08/01 08:58:49;;;;;;;7.77;6.97;;;;;;;;;;5073853;28;20568;-73
2021/08/01 09:01:15;;;;;;;8.00;6.93;;;;;;;;;;5073930;28;20497;-72
2021/08/01 09:03:41;;;;;;;8.73;5.73;;;;;;;;;;5084268;28;20426;-71
2021/08/01 09:06:07;;;;;;;6.43;5.83;;;;;;;;;;5094266;28;20428;-73
2021/08/01 09:08:33;;;;;;;6.97;6.27;;;;;;;;;;5093728;28;20400;-70
2021/08/01 09:11:00;;;;;;;6.97;6.23;;;;;;;;;;5093829;28;20462;-72
2021/08/01 09:13:44;;;;;;;6.30;5.70;;;;;;;;;;5083313;28;20435;-70
2021/08/01 09:16:11;;;;;;;7.50;5.70;;;;;;;;;;5073867;28;20455;-71
2021/08/01 09:18:37;;;;;;;6.20;5.60;;;;;;;;;;5073278;28;20412;-71
2021/08/01 09:21:03;;;;;;;5.77;5.10;;;;;;;;;;5073715;28;20408;-72
2021/08/01 09:23:29;;;;;;;6.03;5.53;;;;;;;;;;5073350;28;20439;-70
2021/08/01 09:26:00;;;;;;;5.30;4.90;;;;;;;;;;5073451;28;20410;-72
2021/08/01 09:28:26;;;;;;;6.73;5.33;;;;;;;;;;5073076;28;20482;-71
2021/08/01 09:31:03;;;;;;;5.50;5.00;;;;;;;;;;5073599;28;20780;-72
2021/08/01 09:33:38;;;;;;;5.97;4.80;;;;;;;;;;5073687;28;20934;-73
2021/08/01 09:36:08;;;;;;;5.80;4.80;;;;;;;;;;5073489;28;20434;-71
2021/08/01 09:38:43;;;;;;;4.30;3.87;;;;;;;;;;5073200;28;20413;-72
2021/08/01 09:41:09;;;;;;;4.83;3.93;;;;;;;;;;5073173;28;20459;-74
2021/08/01 09:43:43;;;;;;;4.97;4.10;;;;;;;;;;5072933;28;20938;-71
2021/08/01 09:46:09;;;;;;;3.80;3.50;;;;;;;;;;5073249;28;20402;-73
2021/08/01 09:48:35;;;;;;;5.93;3.97;;;;;;;;;;5092407;28;20406;-72
2021/08/01 09:51:03;;;;;;;4.20;3.83;;;;;;;;;;5093631;28;20467;-71
2021/08/01 09:53:30;;;;;;;4.13;3.80;;;;;;;;;;5093123;28;20426;-72
2021/08/01 09:56:11;;;;;;;4.63;4.20;;;;;;;;;;5081335;28;20442;-71
2021/08/01 09:58:37;;;;;;;3.80;3.50;;;;;;;;;;5061386;28;20402;-70
2021/08/01 10:01:03;;;;;;;3.67;3.37;;;;;;;;;;5073049;28;20472;-71
2021/08/01 10:03:40;;;;;;;4.00;3.70;;;;;;;;;;5081755;28;20417;-71
2021/08/01 10:06:09;;;;;;;5.20;4.50;;;;;;;;;;5092866;28;20432;-70
2021/08/01 10:08:37;;;;;;;4.80;4.30;;;;;;;;;;5092848;28;20766;-72
2021/08/01 10:11:10;;;;;;;4.87;4.47;;;;;;;;;;5088876;28;20461;-72
2021/08/01 10:13:37;;;;;;;5.40;4.90;;;;;;;;;;5084894;28;20422;-71
2021/08/01 10:16:04;;;;;;;4.67;4.27;;;;;;;;;;5093229;28;20417;-73
2021/08/01 10:18:30;;;;;;;5.03;4.53;;;;;;;;;;5092892;28;20401;-71
2021/08/01 10:20:56;;;;;;;6.23;5.57;;;;;;;;;;5093065;28;20452;-70
2021/08/01 10:23:23;;;;;;;5.20;4.70;;;;;;;;;;5080804;28;20422;-70
2021/08/01 10:25:49;;;;;;;6.10;5.60;;;;;;;;;;5092496;28;20417;-70
2021/08/01 10:28:20;;;;;;;6.50;6.00;;;;;;;;;;5079938;28;20411;-71
2021/08/01 10:30:46;;;;;;;5.47;4.97;;;;;;;;;;5072929;28;20583;-69
2021/08/01 10:33:15;;;;;;;5.40;4.90;;;;;;;;;;5073112;28;20430;-73
2021/08/01 10:35:45;;;;;;;4.37;3.97;;;;;;;;;;5072676;28;20406;-72
2021/08/01 10:38:11;;;;;;;4.50;4.20;;;;;;;;;;5073235;28;20403;-73
2021/08/01 10:40:38;;;;;;;5.03;4.53;;;;;;;;;;5092934;28;20402;-71
2021/08/01 10:43:06;;;;;;;4.37;4.00;;;;;;;;;;5092785;28;20429;-73
2021/08/01 10:45:32;;;;;;;4.73;4.33;;;;;;;;;;5093117;28;20441;-71
2021/08/01 10:48:00;;;;;;;4.97;4.57;;;;;;;;;;5093029;28;20428;-71
2021/08/01 10:50:27;;;;;;;5.03;4.53;;;;;;;;;;5093655;28;20977;-72
2021/08/01 10:53:28;;;;;;;4.60;4.30;;;;;;;;;;5091347;28;20441;-69
2021/08/01 10:56:06;;;;;;;4.70;4.30;;;;;;;;;;5030349;28;21024;-72
2021/08/01 10:58:36;;;;;;;5.67;5.23;;;;;;;;;;5057620;28;20450;-70
2021/08/01 11:01:03;;;;;;;4.80;4.50;;;;;;;;;;5073043;28;20407;-71
2021/08/01 11:03:30;;;;;;;4.53;4.13;;;;;;;;;;5080829;28;20413;-71
2021/08/01 11:05:57;;;;;;;4.73;4.43;;;;;;;;;;5093105;28;20502;-71
2021/08/01 11:08:23;;;;;;;5.20;4.80;;;;;;;;;;5092867;28;20413;-70
2021/08/01 11:11:09;;;;;;;6.40;5.90;;;;;;;;;;5093291;28;20529;-72
2021/08/01 11:13:36;;;;;;;6.03;5.27;;;;;;;;;;5092601;28;20453;-74
2021/08/01 11:16:02;;;;;;;5.47;5.00;;;;;;;;;;5092561;28;20500;-73
2021/08/01 11:18:33;;;;;;;5.10;4.67;;;;;;;;;;5093996;28;20456;-73
2021/08/01 11:21:03;;;;;;;4.93;4.37;;;;;;;;;;5096848;28;20410;-71
2021/08/01 11:23:47;;;;;;;4.87;4.47;;;;;;;;;;5096357;28;20437;-71
2021/08/01 11:26:17;;;;;;;5.17;4.67;;;;;;;;;;5096557;28;20423;-71
2021/08/01 11:28:44;;;;;;;5.23;4.73;;;;;;;;;;5089247;28;20398;-69
2021/08/01 11:31:13;;;;;;;5.13;4.33;;;;;;;;;;5075935;28;20918;-71
2021/08/01 11:33:40;;;;;;;5.60;3.83;;;;;;;;;;5075630;28;20449;-74
2021/08/01 11:36:12;;;;;;;4.60;4.20;;;;;;;;;;5075778;28;20410;-70
2021/08/01 11:38:40;;;;;;;5.63;4.10;;;;;;;;;;5075435;28;20411;-73
2021/08/01 11:41:06;;;;;;;9.50;4.70;;;;;;;;;;5076185;28;20410;-70
2021/08/01 11:43:33;;;;;;;8.33;4.70;;;;;;;;;;5075541;28;20440;-70
2021/08/01 11:46:00;;;;;;;6.70;5.17;;;;;;;;;;5075622;28;20414;-71
2021/08/01 11:48:26;;;;;;;6.10;4.80;;;;;;;;;;5074655;28;20509;-73
2021/08/01 11:50:53;;;;;;;8.80;6.20;;;;;;;;;;5075277;28;20496;-70
2021/08/01 11:53:19;;;;;;;6.00;5.30;;;;;;;;;;5075100;28;20431;-69
2021/08/01 11:55:47;;;;;;;5.53;4.40;;;;;;;;;;5075086;28;20411;-73
2021/08/01 11:58:14;;;;;;;4.80;4.33;;;;;;;;;;5073587;28;20441;-71
2021/08/01 12:00:40;;;;;;;4.30;3.90;;;;;;;;;;5075109;28;20422;-68
2021/08/01 12:03:07;;;;;;;4.97;4.47;;;;;;;;;;5074999;28;20430;-71
2021/08/01 12:05:48;;;;;;;6.33;4.73;;;;;;;;;;5075219;28;20441;-71
2021/08/01 12:08:30;;;;;;;5.03;4.53;;;;;;;;;;5074693;28;20407;-69
2021/08/01 12:11:06;;;;;;;5.27;4.37;;;;;;;;;;5074891;28;20469;-69
2021/08/01 12:13:32;;;;;;;5.00;4.57;;;;;;;;;;5074966;28;20476;-69
2021/08/01 12:15:58;;;;;;;10.83;9.07;;;;;;;;;;5074875;28;20406;-71
2021/08/01 12:18:27;;;;;;;5.23;4.53;;;;;;;;;;5074428;28;20836;-71
2021/08/01 12:20:53;;;;;;;4.40;3.60;;;;;;;;;;5074687;28;20786;-70
2021/08/01 12:23:35;;;;;;;5.13;3.57;;;;;;;;;;5074892;28;20458;-72
2021/08/01 12:26:01;;;;;;;7.30;4.80;;;;;;;;;;5075002;28;20402;-72
2021/08/01 12:28:40;;;;;;;4.87;4.40;;;;;;;;;;5074005;28;20413;-70
2021/08/01 12:31:06;;;;;;;4.20;3.80;;;;;;;;;;5074457;28;20920;-70
2021/08/01 12:33:32;;;;;;;4.77;4.30;;;;;;;;;;5074385;28;20466;-69
2021/08/01 12:35:58;;;;;;;4.60;4.20;;;;;;;;;;5074733;28;20749;-72
2021/08/01 12:38:25;;;;;;;5.13;4.07;;;;;;;;;;5073907;28;20421;-71
2021/08/01 12:40:52;;;;;;;4.40;4.00;;;;;;;;;;5074299;28;20406;-71
2021/08/01 12:43:29;;;;;;;4.03;3.73;;;;;;;;;;5074406;28;20477;-70
2021/08/01 12:45:56;;;;;;;6.50;5.00;;;;;;;;;;5074587;28;20407;-71
2021/08/01 12:48:23;;;;;;;5.47;3.90;;;;;;;;;;5073818;28;20442;-70
2021/08/01 12:50:51;;;;;;;3.87;3.50;;;;;;;;;;5073930;28;20493;-69
2021/08/01 12:53:19;;;;;;;4.60;3.80;;;;;;;;;;5079798;28;20933;-73
2021/08/01 12:55:45;;;;;;;4.10;3.63;;;;;;;;;;5084274;28;20407;-69
2021/08/01 12:58:12;;;;;;;4.53;3.80;;;;;;;;;;5074028;28;20416;-71
2021/08/01 13:00:39;;;;;;;12.17;9.77;;;;;;;;;;5074417;28;20426;-70
2021/08/01 13:03:06;;;;;;;25.10;17.40;;;;;;;;;;5074205;28;20437;-71
2021/08/01 13:05:33;;;;;;;6.03;5.40;;;;;;;;;;5073876;28;20437;-70
2021/08/01 13:08:00;;;;;;;4.10;3.43;;;;;;;;;;5073589;28;20410;-71
2021/08/01 13:10:27;;;;;;;5.10;4.03;;;;;;;;;;5073583;28;20458;-71
2021/08/01 13:13:08;;;;;;;4.87;4.30;;;;;;;;;;5073486;28;20986;-71
2021/08/01 13:15:37;;;;;;;6.77;4.40;;;;;;;;;;5073615;28;20406;-71
2021/08/01 13:18:04;;;;;;;3.93;3.30;;;;;;;;;;5073454;28;20412;-70
2021/08/01 13:20:35;;;;;;;3.37;2.90;;;;;;;;;;5073584;28;20425;-72
2021/08/01 13:23:03;;;;;;;4.13;3.40;;;;;;;;;;5073718;28;20439;-70
2021/08/01 13:25:33;;;;;;;3.60;3.00;;;;;;;;;;5073569;28;20418;-69
2021/08/01 13:27:59;;;;;;;3.63;2.70;;;;;;;;;;5073213;28;20748;-71
2021/08/01 13:30:25;;;;;;;4.20;2.87;;;;;;;;;;5073563;28;20469;-70
2021/08/01 13:32:51;;;;;;;3.60;2.93;;;;;;;;;;5073477;28;20482;-71
2021/08/01 13:35:27;;;;;;;4.13;3.33;;;;;;;;;;5073527;28;20410;-72
2021/08/01 13:38:02;;;;;;;4.37;3.60;;;;;;;;;;5073303;28;20401;-70
2021/08/01 13:40:30;;;;;;;2.73;2.53;;;;;;;;;;5072865;28;20460;-70
2021/08/01 13:42:56;;;;;;;3.27;2.90;;;;;;;;;;5073648;28;20769;-72
2021/08/01 13:45:26;;;;;;;5.13;4.17;;;;;;;;;;5073230;28;20418;-71
2021/08/01 13:47:53;;;;;;;3.33;3.00;;;;;;;;;;5071548;28;20814;-69
2021/08/01 13:50:19;;;;;;;6.27;3.20;;;;;;;;;;5071805;28;20986;-71
2021/08/01 13:52:46;;;;;;;3.63;2.80;;;;;;;;;;5073362;28;20846;-69
2021/08/01 13:55:13;;;;;;;3.20;2.90;;;;;;;;;;5073082;28;20492;-68
2021/08/01 13:57:39;;;;;;;3.77;2.80;;;;;;;;;;5072621;28;20809;-70
2021/08/01 14:00:07;;;;;;;4.27;2.93;;;;;;;;;;5073116;28;20434;-70
2021/08/01 14:02:33;;;;;;;3.93;3.10;;;;;;;;;;5073944;28;20521;-71
2021/08/01 14:04:59;;;;;;;3.27;2.97;;;;;;;;;;5093063;28;20861;-71
2021/08/01 14:07:26;;;;;;;3.00;2.70;;;;;;;;;;5092868;28;20500;-71
2021/08/01 14:09:52;;;;;;;3.10;2.80;;;;;;;;;;5093363;28;20471;-70
2021/08/01 14:12:18;;;;;;;3.60;2.80;;;;;;;;;;5092240;28;20410;-70
2021/08/01 14:14:44;;;;;;;3.77;3.47;;;;;;;;;;5072858;28;20402;-71
2021/08/01 14:17:11;;;;;;;3.87;3.47;;;;;;;;;;5072783;28;20722;-70
2021/08/01 14:19:38;;;;;;;3.13;2.83;;;;;;;;;;5072744;28;20407;-70
2021/08/01 14:22:04;;;;;;;2.73;2.40;;;;;;;;;;5072935;28;20422;-72
2021/08/01 14:24:30;;;;;;;3.07;2.77;;;;;;;;;;5072997;28;20440;-70
2021/08/01 14:26:57;;;;;;;2.33;2.13;;;;;;;;;;5073116;28;20737;-71
2021/08/01 14:29:23;;;;;;;2.40;2.20;;;;;;;;;;5073367;28;20503;-71
2021/08/01 14:31:54;;;;;;;3.33;2.53;;;;;;;;;;5071919;28;20547;-73
2021/08/01 14:34:24;;;;;;;2.17;1.93;;;;;;;;;;5072987;28;20830;-71
2021/08/01 14:36:52;;;;;;;3.57;2.67;;;;;;;;;;5072522;28;22126;-71
2021/08/01 14:39:18;;;;;;;2.60;2.40;;;;;;;;;;5072792;28;20817;-72
2021/08/01 14:41:45;;;;;;;2.50;1.83;;;;;;;;;;5073101;28;20429;-72
2021/08/01 14:44:12;;;;;;;3.10;2.80;;;;;;;;;;5082729;28;20450;-70
2021/08/01 14:46:38;;;;;;;2.87;2.40;;;;;;;;;;5092560;28;20464;-71